Time;durP1;ratioP1;P1;durP2;ratioP2;P2;SDS_P1;SDS_P2;PMS_P1;PMS_P2;Temp;Humidity;BMP_temperature;BMP_pressure;BME280_temperature;BME280_humidity;BME280_pressure;Samples;Min_cycle;Max_cycle;Signal;HPM_P1;HPM_P2
2022/03/21 00:01:20;;;;;;;46.97;20.60;;;0.90;99.90;;;;;;5018063;28;20040;-72
2022/03/21 00:03:47;;;;;;;67.65;28.80;;;0.80;99.90;;;;;;5035762;28;20130;-72
2022/03/21 00:06:13;;;;;;;47.97;21.38;;;0.70;99.90;;;;;;5017936;28;20372;-72
2022/03/21 00:08:39;;;;;;;65.20;28.20;;;0.70;99.90;;;;;;5035654;28;20037;-72
2022/03/21 00:11:05;;;;;;;64.65;29.08;;;0.80;99.90;;;;;;5035409;28;20076;-72
2022/03/21 00:13:31;;;;;;;61.47;28.95;;;0.80;99.90;;;;;;5035551;28;20035;-72
2022/03/21 00:15:57;;;;;;;66.07;28.33;;;0.70;99.90;;;;;;5035647;28;20100;-72
2022/03/21 00:18:25;;;;;;;69.05;30.13;;;0.60;99.90;;;;;;5017954;28;20290;-72
2022/03/21 00:20:53;;;;;;;60.00;28.40;;;0.60;99.90;;;;;;5035336;28;20025;-72
2022/03/21 00:23:20;;;;;;;64.05;29.13;;;0.70;99.90;;;;;;5035222;28;20360;-72
2022/03/21 00:25:46;;;;;;;61.22;28.63;;;0.70;99.90;;;;;;5035288;28;20305;-72
2022/03/21 00:28:12;;;;;;;61.23;27.03;;;0.80;99.90;;;;;;5035324;28;20469;-71
2022/03/21 00:30:40;;;;;;;64.87;26.50;;;0.90;99.90;;;;;;5034987;28;20033;-72
2022/03/21 00:33:07;;;;;;;59.83;27.33;;;1.00;99.90;;;;;;5035266;28;20316;-72
2022/03/21 00:35:33;;;;;;;64.20;28.35;;;1.10;99.90;;;;;;5035103;28;20018;-72
2022/03/21 00:37:59;;;;;;;45.03;21.17;;;1.00;99.90;;;;;;5035459;28;20310;-72
2022/03/21 00:40:25;;;;;;;65.75;27.88;;;1.00;99.90;;;;;;5035208;28;20444;-72
2022/03/21 00:42:51;;;;;;;58.35;28.77;;;1.00;99.90;;;;;;5017715;28;20336;-71
2022/03/21 00:45:19;;;;;;;58.60;25.85;;;0.90;99.90;;;;;;5035247;28;20029;-71
2022/03/21 00:47:47;;;;;;;57.10;24.63;;;0.80;99.90;;;;;;5034860;28;20030;-72
2022/03/21 00:50:15;;;;;;;63.78;27.02;;;0.80;99.90;;;;;;5035142;28;20526;-72
2022/03/21 00:52:48;;;;;;;59.20;26.90;;;0.80;99.90;;;;;;5035182;28;20029;-73
2022/03/21 00:55:15;;;;;;;54.15;24.83;;;0.80;99.90;;;;;;5035372;28;20052;-72
2022/03/21 00:57:45;;;;;;;59.60;26.55;;;0.80;99.90;;;;;;5017414;28;20128;-72
2022/03/21 01:00:14;;;;;;;52.83;24.75;;;0.80;99.90;;;;;;5035026;28;20412;-72
2022/03/21 01:02:40;;;;;;;59.88;26.60;;;0.90;99.90;;;;;;5017459;28;20031;-72
2022/03/21 01:05:07;;;;;;;57.13;26.02;;;0.90;99.90;;;;;;5035262;28;20021;-73
2022/03/21 01:07:34;;;;;;;63.13;26.02;;;0.90;99.90;;;;;;5035293;28;20033;-72
2022/03/21 01:10:00;;;;;;;57.53;25.63;;;0.90;99.90;;;;;;5034826;28;20033;-72
2022/03/21 01:12:27;;;;;;;52.67;25.33;;;0.90;99.90;;;;;;5034830;28;20029;-73
2022/03/21 01:14:53;;;;;;;58.40;25.52;;;0.90;99.90;;;;;;5029441;28;20032;-72
2022/03/21 01:17:19;;;;;;;52.63;24.52;;;0.90;99.90;;;;;;5031238;28;20082;-72
2022/03/21 01:19:45;;;;;;;55.47;24.50;;;0.90;99.90;;;;;;5022324;28;20030;-72
2022/03/21 01:22:11;;;;;;;58.97;26.60;;;0.80;99.90;;;;;;5011755;28;20065;-72
2022/03/21 01:24:38;;;;;;;54.22;26.15;;;0.70;99.90;;;;;;5013550;28;20377;-72
2022/03/21 01:27:05;;;;;;;53.75;22.67;;;0.50;99.90;;;;;;5014513;28;20045;-72
2022/03/21 01:29:31;;;;;;;61.42;25.77;;;0.40;99.90;;;;;;5014718;28;20030;-72
2022/03/21 01:31:57;;;;;;;55.05;25.73;;;0.40;99.90;;;;;;5014844;28;20042;-72
2022/03/21 01:34:23;;;;;;;53.97;26.03;;;0.40;99.90;;;;;;4997546;28;20751;-83
2022/03/21 01:36:49;;;;;;;41.13;19.05;;;0.50;99.90;;;;;;5014769;28;20125;-71
2022/03/21 01:39:15;;;;;;;57.70;26.03;;;0.40;99.90;;;;;;4997786;28;20105;-72
2022/03/21 01:41:41;;;;;;;58.57;25.53;;;0.50;99.90;;;;;;5015564;28;20022;-72
2022/03/21 01:44:08;;;;;;;42.03;18.90;;;0.60;99.90;;;;;;5018643;28;20022;-72
2022/03/21 01:46:36;;;;;;;62.50;25.83;;;0.50;99.90;;;;;;5019533;28;20022;-72
2022/03/21 01:49:04;;;;;;;59.03;25.85;;;0.50;99.90;;;;;;5017013;28;20029;-72
2022/03/21 01:51:30;;;;;;;52.65;25.60;;;0.40;99.90;;;;;;5000755;28;20033;-73
2022/03/21 01:56:43;;;;;;;52.47;25.38;;;0.50;99.90;;;;;;5003645;28;20444;-72
2022/03/21 01:59:10;;;;;;;59.35;27.00;;;0.60;99.90;;;;;;5018156;28;20325;-72
2022/03/21 02:01:38;;;;;;;54.97;25.33;;;0.60;99.90;;;;;;5000502;28;20080;-71
2022/03/21 02:04:04;;;;;;;61.90;25.85;;;0.70;99.90;;;;;;5000739;28;20034;-72
2022/03/21 02:06:31;;;;;;;46.70;19.42;;;0.70;99.90;;;;;;5018008;28;20030;-73
2022/03/21 02:08:58;;;;;;;56.72;26.30;;;0.70;99.90;;;;;;5026751;28;20021;-72
2022/03/21 02:11:28;;;;;;;57.22;25.88;;;0.70;99.90;;;;;;5037452;28;20037;-71
2022/03/21 02:13:58;;;;;;;62.75;26.88;;;0.70;99.90;;;;;;5037489;28;20029;-71
2022/03/21 02:16:25;;;;;;;56.97;25.25;;;0.80;99.90;;;;;;5037700;28;20068;-72
2022/03/21 02:18:52;;;;;;;62.90;26.98;;;0.80;99.90;;;;;;5037534;28;20068;-72
2022/03/21 02:22:00;;;;;;;58.13;26.10;;;0.90;99.90;;;;;;5019848;28;20057;-72
2022/03/21 02:24:46;;;;;;;53.47;24.40;;;0.90;99.90;;;;;;5037284;28;20420;-71
2022/03/21 02:27:12;;;;;;;54.88;24.73;;;0.80;99.90;;;;;;5019782;28;20029;-72
2022/03/21 02:29:40;;;;;;;;;;;0.70;99.90;;;;;;5037661;28;20175;-71
2022/03/21 02:32:07;;;;;;;47.85;23.75;;;0.70;99.90;;;;;;5037291;28;20055;-71
2022/03/21 02:34:36;;;;;;;56.38;25.00;;;0.60;99.90;;;;;;5037529;28;20103;-71
2022/03/21 02:37:03;;;;;;;51.53;24.40;;;0.70;99.90;;;;;;5037268;28;20118;-72
2022/03/21 02:39:29;;;;;;;;;;;0.60;99.90;;;;;;5018984;28;20022;-72
2022/03/21 02:41:56;;;;;;;40.22;15.68;;;0.50;99.90;;;;;;5017366;28;19912;-72
2022/03/21 02:44:23;;;;;;;55.90;23.77;;;0.40;99.90;;;;;;4999854;28;20036;-71
2022/03/21 02:46:49;;;;;;;56.03;25.52;;;0.40;99.90;;;;;;5020058;28;20033;-72
2022/03/21 02:49:15;;;;;;;57.30;24.20;;;0.40;99.90;;;;;;5037037;28;20037;-72
2022/03/21 02:51:43;;;;;;;62.95;25.30;;;0.50;99.90;;;;;;5037034;28;20037;-71
2022/03/21 02:54:10;;;;;;;62.75;25.55;;;0.50;99.90;;;;;;5019294;28;20103;-72
2022/03/21 02:56:36;;;;;;;64.10;27.05;;;0.60;99.90;;;;;;5036871;28;20021;-72
2022/03/21 02:59:02;;;;;;;39.70;18.30;;;0.70;99.90;;;;;;5036935;28;20033;-72
2022/03/21 03:01:29;;;;;;;49.10;22.00;;;0.80;99.90;;;;;;5036739;28;20029;-72
2022/03/21 03:03:54;;;;;;;54.53;22.52;;;0.70;99.90;;;;;;5036707;28;20025;-72
2022/03/21 03:06:20;;;;;;;51.63;23.13;;;0.60;99.90;;;;;;5036708;28;20084;-72
2022/03/21 03:08:46;;;;;;;44.50;17.77;;;0.50;99.90;;;;;;5036946;28;20030;-71
2022/03/21 03:11:12;;;;;;;48.97;21.70;;;0.40;99.90;;;;;;5036531;28;20021;-72
2022/03/21 03:13:38;;;;;;;56.40;23.30;;;0.20;99.90;;;;;;5036746;28;20026;-71
2022/03/21 03:16:04;;;;;;;39.03;16.67;;;0.20;99.90;;;;;;5036535;28;20029;-72
2022/03/21 03:18:30;;;;;;;51.30;23.38;;;0.10;99.90;;;;;;5018832;28;20420;-72
2022/03/21 03:20:58;;;;;;;52.57;23.33;;;0.10;99.90;;;;;;5036505;28;20064;-72
2022/03/21 03:23:26;;;;;;;48.95;23.17;;;0.30;99.90;;;;;;5036256;28;20045;-72
2022/03/21 03:26:00;;;;;;;53.15;22.60;;;0.20;99.90;;;;;;5036338;28;20029;-72
2022/03/21 03:28:26;;;;;;;58.30;24.90;;;0.30;99.90;;;;;;5036478;28;20056;-72
2022/03/21 03:30:52;;;;;;;56.03;26.50;;;0.30;99.90;;;;;;5018755;28;20108;-72
2022/03/21 03:33:17;;;;;;;62.53;23.00;;;0.20;99.90;;;;;;5036251;28;20349;-71
2022/03/21 03:35:43;;;;;;;39.00;18.20;;;0.20;99.90;;;;;;5036113;28;20105;-72
2022/03/21 03:38:09;;;;;;;49.10;22.50;;;0.20;99.90;;;;;;5036081;28;20028;-72
2022/03/21 03:40:35;;;;;;;54.17;22.83;;;0.20;99.90;;;;;;5036001;28;20255;-72
2022/03/21 03:43:00;;;;;;;60.67;22.90;;;0.20;99.90;;;;;;5036313;28;20026;-72
2022/03/21 03:45:26;;;;;;;53.57;22.70;;;0.00;99.90;;;;;;5036040;28;20033;-73
2022/03/21 03:47:52;;;;;;;41.50;17.00;;;0.00;99.90;;;;;;5018246;28;20439;-72
2022/03/21 03:50:19;;;;;;;40.85;18.15;;;-0.10;99.90;;;;;;5035894;28;20029;-72
2022/03/21 03:52:46;;;;;;;51.40;23.30;;;-0.10;99.90;;;;;;5018190;28;20025;-72
2022/03/21 03:55:17;;;;;;;50.83;21.77;;;-0.20;99.90;;;;;;5035698;28;20017;-72
2022/03/21 03:57:47;;;;;;;58.80;24.42;;;-0.20;99.90;;;;;;5018581;28;20025;-72
2022/03/21 04:00:14;;;;;;;60.85;24.77;;;-0.20;99.90;;;;;;5035700;28;20029;-71
2022/03/21 04:05:25;;;;;;;46.17;20.95;;;-0.20;99.90;;;;;;5035433;28;20087;-71
2022/03/21 04:07:52;;;;;;;44.35;21.90;;;-0.20;99.90;;;;;;5035658;28;20022;-71
2022/03/21 04:10:17;;;;;;;51.75;23.55;;;-0.40;99.90;;;;;;5018372;28;20120;-82
2022/03/21 04:12:44;;;;;;;36.77;18.13;;;-0.40;99.90;;;;;;5035633;28;20523;-72
2022/03/21 04:15:10;;;;;;;42.15;18.00;;;-0.50;99.90;;;;;;5035679;28;20030;-71
2022/03/21 04:17:36;;;;;;;61.95;25.02;;;-0.40;99.90;;;;;;5035487;28;20022;-72
2022/03/21 04:20:03;;;;;;;41.43;18.53;;;-0.40;99.90;;;;;;5035533;28;20029;-71
2022/03/21 04:22:29;;;;;;;49.53;23.10;;;-0.40;99.90;;;;;;5035373;28;20273;-71
2022/03/21 04:24:55;;;;;;;51.13;23.50;;;-0.40;99.90;;;;;;5035206;28;20575;-71
2022/03/21 04:27:21;;;;;;;49.97;18.57;;;-0.40;99.90;;;;;;5035325;28;20025;-72
2022/03/21 04:29:46;;;;;;;35.97;16.20;;;-0.50;99.90;;;;;;5017636;28;20026;-72
2022/03/21 04:32:12;;;;;;;32.10;15.30;;;-0.50;99.90;;;;;;5035326;28;20032;-71
2022/03/21 04:34:38;;;;;;;56.20;23.77;;;-0.60;99.90;;;;;;5017664;28;20029;-71
2022/03/21 04:37:04;;;;;;;57.47;23.77;;;-0.60;99.90;;;;;;5018084;28;20450;-72
2022/03/21 04:39:30;;;;;;;55.23;24.63;;;-0.60;99.90;;;;;;5035233;28;20026;-72
2022/03/21 04:41:56;;;;;;;46.27;18.83;;;-0.70;99.90;;;;;;5017618;28;20104;-72
2022/03/21 04:44:22;;;;;;;40.72;17.88;;;-0.70;99.90;;;;;;5035320;28;20024;-72
2022/03/21 04:46:47;;;;;;;62.07;25.10;;;-0.70;99.90;;;;;;5017665;28;20022;-72
2022/03/21 04:49:13;;;;;;;41.97;18.63;;;-0.80;99.90;;;;;;5035072;28;20026;-71
2022/03/21 04:51:39;;;;;;;68.83;25.97;;;-0.80;99.90;;;;;;5017669;28;20029;-71
2022/03/21 04:54:05;;;;;;;42.50;18.77;;;-0.80;99.90;;;;;;5035168;28;20259;-82
2022/03/21 04:56:30;;;;;;;67.33;26.60;;;-0.80;99.90;;;;;;5035024;28;20057;-71
2022/03/21 04:58:56;;;;;;;65.67;27.20;;;-0.90;99.90;;;;;;5035009;28;20022;-72
2022/03/21 05:01:23;;;;;;;56.20;24.50;;;-0.90;99.90;;;;;;5035125;28;20104;-72
2022/03/21 05:03:50;;;;;;;55.45;27.35;;;-0.80;99.90;;;;;;5034948;28;20103;-72
2022/03/21 05:06:16;;;;;;;59.88;26.40;;;-0.80;99.90;;;;;;5017430;28;20029;-71
2022/03/21 05:08:43;;;;;;;52.10;21.00;;;-0.90;99.90;;;;;;5035014;28;20069;-71
2022/03/21 05:11:09;;;;;;;63.50;24.13;;;-0.90;99.90;;;;;;5034731;28;20104;-76
2022/03/21 05:13:37;;;;;;;48.63;21.90;;;-1.00;99.90;;;;;;5034979;28;20105;-71
2022/03/21 05:16:05;;;;;;;62.42;25.67;;;-1.00;99.90;;;;;;5035040;28;20026;-71
2022/03/21 05:18:34;;;;;;;44.95;20.42;;;-1.00;99.90;;;;;;5021069;28;20030;-72
2022/03/21 05:21:00;;;;;;;64.07;24.67;;;-1.00;99.90;;;;;;5038759;28;20021;-72
2022/03/21 05:31:38;;;;;;;69.70;27.63;;;-1.10;99.90;;;;;;5038524;28;20040;-71
2022/03/21 05:36:48;;;;;;;68.35;27.65;;;-1.10;99.90;;;;;;5038763;28;20649;-71
2022/03/21 05:39:14;;;;;;;68.00;27.80;;;-1.10;99.90;;;;;;5054158;28;20033;-72
2022/03/21 05:41:39;;;;;;;72.20;29.33;;;-1.00;99.90;;;;;;5058168;28;20036;-71
2022/03/21 05:44:05;;;;;;;68.47;28.10;;;-1.00;99.90;;;;;;5057696;28;20425;-72
2022/03/21 05:46:31;;;;;;;45.27;19.67;;;-1.00;99.90;;;;;;5039200;28;20044;-72
2022/03/21 05:49:00;;;;;;;60.00;25.73;;;-1.00;99.90;;;;;;5038221;28;20026;-72
2022/03/21 05:51:34;;;;;;;68.47;28.92;;;-1.10;99.90;;;;;;5037936;28;20029;-72
2022/03/21 05:54:05;;;;;;;72.82;30.30;;;-1.00;99.90;;;;;;5020142;28;20028;-72
2022/03/21 05:56:32;;;;;;;64.65;25.73;;;-1.00;99.90;;;;;;5037809;28;20029;-71
2022/03/21 06:00:20;;;;;;;63.72;25.90;;;-1.00;99.90;;;;;;5037855;28;20103;-71
2022/03/21 06:01:52;;;;;;;64.18;25.20;;;-1.00;99.90;;;;;;5037516;28;20409;-71
2022/03/21 06:04:18;;;;;;;64.00;26.15;;;-1.00;99.90;;;;;;5038070;28;20320;-71
2022/03/21 06:06:45;;;;;;;51.92;23.13;;;-1.00;99.90;;;;;;5037598;28;20025;-72
2022/03/21 06:09:11;;;;;;;81.63;29.67;;;-1.00;99.90;;;;;;5020052;28;20037;-72
2022/03/21 06:11:37;;;;;;;79.43;31.85;;;-0.80;99.90;;;;;;5037771;28;20336;-71
2022/03/21 06:14:09;;;;;;;77.07;31.40;;;-0.70;99.90;;;;;;5037520;28;20037;-71
2022/03/21 06:16:35;;;;;;;73.07;31.85;;;-0.50;99.90;;;;;;5037664;28;20029;-71
2022/03/21 06:19:01;;;;;;;69.80;30.15;;;-0.30;99.90;;;;;;5019850;28;20104;-71
2022/03/21 06:21:30;;;;;;;76.22;30.20;;;-0.10;99.90;;;;;;5019733;28;20029;-71
2022/03/21 06:23:57;;;;;;;76.60;30.10;;;-0.10;99.90;;;;;;5037352;28;20069;-72
2022/03/21 06:26:23;;;;;;;55.45;23.33;;;0.00;99.90;;;;;;5037320;28;20109;-71
2022/03/21 06:28:49;;;;;;;61.97;27.53;;;0.00;99.90;;;;;;5036981;28;20117;-71
2022/03/21 06:31:15;;;;;;;54.15;23.20;;;-0.10;99.90;;;;;;5036968;28;20099;-84
2022/03/21 06:33:41;;;;;;;59.28;23.98;;;-0.10;99.90;;;;;;5037148;28;20017;-71
2022/03/21 06:36:07;;;;;;;40.93;17.00;;;-0.20;99.90;;;;;;5037224;28;20427;-70
2022/03/21 06:38:34;;;;;;;46.60;19.60;;;-0.20;99.90;;;;;;5037191;28;20026;-71
2022/03/21 06:41:00;;;;;;;52.25;23.75;;;-0.20;99.90;;;;;;5037384;28;20083;-72
2022/03/21 06:43:27;;;;;;;61.20;24.70;;;-0.10;99.90;;;;;;5019205;28;20065;-71
2022/03/21 06:45:54;;;;;;;66.82;26.20;;;0.10;99.90;;;;;;5036829;28;20029;-71
2022/03/21 06:48:23;;;;;;;66.88;29.23;;;0.40;99.90;;;;;;5019160;28;20072;-71
2022/03/21 06:50:50;;;;;;;75.05;29.15;;;0.70;99.90;;;;;;5036792;28;20054;-71
2022/03/21 06:53:16;;;;;;;66.68;28.70;;;0.90;99.90;;;;;;5036742;28;20029;-71
2022/03/21 06:55:43;;;;;;;68.55;28.65;;;1.10;99.90;;;;;;5036666;28;20409;-71
2022/03/21 06:58:11;;;;;;;;;;;1.50;99.90;;;;;;5036360;28;20045;-72
2022/03/21 07:00:44;;;;;;;77.38;30.50;;;2.20;99.90;;;;;;5031673;28;20313;-72
2022/03/21 07:03:10;;;;;;;80.53;33.55;;;3.10;99.90;;;;;;5017110;28;20040;-72
2022/03/21 07:05:37;;;;;;;58.80;24.27;;;4.30;99.90;;;;;;5016996;28;20038;-72
2022/03/21 07:08:04;;;;;;;68.97;32.28;;;5.50;99.90;;;;;;5016740;28;20041;-72
2022/03/21 07:10:34;;;;;;;64.85;29.50;;;6.50;99.90;;;;;;4999375;28;20030;-72
2022/03/21 07:13:07;;;;;;;56.55;27.13;;;7.60;99.90;;;;;;5016806;28;20286;-73
2022/03/21 07:15:33;;;;;;;51.80;25.77;;;8.60;99.90;;;;;;4999156;28;20032;-72
2022/03/21 07:18:03;;;;;;;45.80;19.70;;;9.30;99.90;;;;;;5016857;28;20034;-72
2022/03/21 07:20:29;;;;;;;46.70;24.05;;;9.80;99.90;;;;;;4998996;28;20057;-73
2022/03/21 07:22:56;;;;;;;50.70;23.13;;;10.40;99.90;;;;;;5016584;28;20115;-72
2022/03/21 07:25:22;;;;;;;42.60;21.60;;;10.90;99.90;;;;;;4998891;28;20305;-72
2022/03/21 07:27:48;;;;;;;39.53;20.48;;;11.10;99.90;;;;;;4999016;28;20030;-82
2022/03/21 07:30:15;;;;;;;42.30;22.58;;;11.30;99.90;;;;;;4998914;28;20037;-72
2022/03/21 07:32:41;;;;;;;43.83;21.35;;;11.50;99.90;;;;;;5016038;28;20053;-72
2022/03/21 07:35:08;;;;;;;43.03;21.52;;;11.50;99.90;;;;;;5028688;28;20034;-72
2022/03/21 07:37:50;;;;;;;40.50;20.40;;;11.80;99.90;;;;;;5036015;28;20034;-74
2022/03/21 07:40:17;;;;;;;45.08;21.98;;;12.10;99.90;;;;;;5034156;28;20030;-73
2022/03/21 07:42:45;;;;;;;43.22;20.20;;;12.30;99.90;;;;;;5035946;28;20036;-84
2022/03/21 07:47:57;;;;;;;40.92;18.73;;;12.80;99.90;;;;;;5036144;28;20040;-74
2022/03/21 07:50:26;;;;;;;;;;;13.10;99.90;;;;;;5036070;28;20424;-74
2022/03/21 07:52:54;;;;;;;70.00;18.88;;;13.60;99.90;;;;;;5035816;28;19999;-74
2022/03/21 07:55:20;;;;;;;44.03;16.58;;;14.00;99.90;;;;;;5017963;28;20328;-74
2022/03/21 07:57:46;;;;;;;31.40;16.05;;;14.20;99.90;;;;;;5035800;28;20029;-74
2022/03/21 08:00:13;;;;;;;48.40;16.70;;;14.30;99.20;;;;;;5017981;28;20038;-74
2022/03/21 08:02:39;;;;;;;32.63;14.20;;;14.30;99.30;;;;;;5035680;28;20029;-74
2022/03/21 08:05:05;;;;;;;46.97;16.65;;;14.50;98.70;;;;;;5017843;28;20034;-74
2022/03/21 08:07:32;;;;;;;33.53;14.38;;;14.70;98.40;;;;;;5035272;28;20057;-74
2022/03/21 08:09:58;;;;;;;26.73;13.60;;;15.10;98.10;;;;;;5035539;28;20034;-74
2022/03/21 08:12:24;;;;;;;25.43;13.90;;;15.00;97.50;;;;;;5035440;28;20026;-74
2022/03/21 08:14:51;;;;;;;25.33;13.02;;;15.00;97.40;;;;;;5017925;28;20026;-74
2022/03/21 08:17:18;;;;;;;29.73;13.52;;;14.80;97.30;;;;;;5035183;28;20025;-74
2022/03/21 08:19:44;;;;;;;26.92;12.32;;;14.50;97.30;;;;;;5035241;28;20026;-74
2022/03/21 08:22:10;;;;;;;29.08;13.80;;;14.80;97.40;;;;;;5017620;28;20025;-80
2022/03/21 08:24:36;;;;;;;30.25;12.60;;;14.90;97.50;;;;;;5035245;28;20050;-74
2022/03/21 08:27:05;;;;;;;30.83;14.07;;;15.30;97.30;;;;;;5017477;28;20032;-75
2022/03/21 08:29:31;;;;;;;23.50;12.50;;;15.60;96.70;;;;;;5035436;28;20045;-74
2022/03/21 08:31:57;;;;;;;24.50;13.38;;;15.90;96.20;;;;;;5017613;28;20036;-74
2022/03/21 08:34:23;;;;;;;31.77;13.50;;;16.20;95.60;;;;;;5035122;28;20025;-74
2022/03/21 08:36:49;;;;;;;29.50;13.20;;;16.20;96.00;;;;;;5035148;28;20040;-74
2022/03/21 08:39:15;;;;;;;28.55;13.00;;;16.40;94.60;;;;;;5034470;28;20757;-74
2022/03/21 08:41:41;;;;;;;26.90;13.13;;;16.40;94.80;;;;;;5034856;28;20404;-74
2022/03/21 08:44:07;;;;;;;34.77;12.60;;;16.40;94.50;;;;;;5035165;28;20033;-74
2022/03/21 08:46:33;;;;;;;43.73;13.30;;;16.50;94.50;;;;;;5017083;28;20096;-74
2022/03/21 08:51:43;;;;;;;29.08;12.68;;;16.70;93.70;;;;;;5037424;28;20111;-75
2022/03/21 08:54:11;;;;;;;27.02;12.27;;;16.80;93.60;;;;;;5038832;28;20022;-75
2022/03/21 08:56:36;;;;;;;;;;;16.90;94.30;;;;;;5039411;28;20029;-74
2022/03/21 08:59:02;;;;;;;24.27;12.53;;;16.90;93.50;;;;;;5039036;28;19905;-74
2022/03/21 09:01:29;;;;;;;25.67;13.13;;;16.90;93.30;;;;;;5038918;28;20025;-75
2022/03/21 09:03:55;;;;;;;31.42;13.60;;;16.90;93.00;;;;;;5038941;28;20324;-75
2022/03/21 09:06:21;;;;;;;24.02;12.40;;;17.20;93.70;;;;;;5038775;28;20023;-75
2022/03/21 09:08:48;;;;;;;23.60;12.73;;;17.30;92.10;;;;;;5038771;28;20035;-74
2022/03/21 09:11:17;;;;;;;27.08;12.55;;;17.30;92.60;;;;;;5038724;28;20432;-83
2022/03/21 09:13:44;;;;;;;31.15;12.95;;;17.50;93.10;;;;;;5038605;28;20105;-75
2022/03/21 09:16:11;;;;;;;23.92;13.02;;;17.50;92.70;;;;;;5038835;28;20343;-75
2022/03/21 09:18:36;;;;;;;23.88;12.60;;;17.40;91.00;;;;;;5020991;28;20026;-74
2022/03/21 09:21:02;;;;;;;22.67;11.50;;;17.30;91.40;;;;;;5021365;28;20044;-75
2022/03/21 09:23:28;;;;;;;26.33;12.73;;;16.90;92.20;;;;;;5038390;28;20627;-76
2022/03/21 09:25:55;;;;;;;31.40;12.77;;;17.10;92.00;;;;;;5021121;28;20056;-75
2022/03/21 09:28:21;;;;;;;23.30;12.32;;;17.40;91.00;;;;;;5038250;28;20025;-83
2022/03/21 09:30:47;;;;;;;;;;;17.30;90.80;;;;;;5038963;28;20055;-75
2022/03/21 09:33:15;;;;;;;22.13;11.60;;;17.30;91.00;;;;;;5020780;28;20295;-83
2022/03/21 09:35:43;;;;;;;28.60;13.23;;;17.30;91.80;;;;;;5038443;28;20022;-75
2022/03/21 09:38:10;;;;;;;24.95;11.52;;;17.40;91.60;;;;;;5038424;28;20076;-75
2022/03/21 09:40:36;;;;;;;;;;;17.20;90.90;;;;;;5021093;28;20029;-81
2022/03/21 09:43:01;;;;;;;17.60;11.05;;;17.00;89.80;;;;;;5020773;28;20351;-75
2022/03/21 09:45:28;;;;;;;24.37;11.40;;;17.10;89.80;;;;;;5038052;28;20057;-84
2022/03/21 09:48:11;;;;;;;21.27;11.43;;;17.20;89.60;;;;;;5020290;28;20029;-75
2022/03/21 09:50:42;;;;;;;22.60;11.15;;;17.10;88.00;;;;;;5038328;28;20371;-76
2022/03/21 09:53:11;;;;;;;25.33;12.45;;;17.10;87.90;;;;;;5011771;28;20029;-75
2022/03/21 09:55:37;;;;;;;19.48;11.20;;;17.20;88.20;;;;;;5031165;28;20088;-74
2022/03/21 09:58:03;;;;;;;17.80;10.60;;;17.30;88.40;;;;;;5031172;28;20373;-76
2022/03/21 10:00:29;;;;;;;20.73;10.93;;;17.10;88.10;;;;;;5022731;28;20441;-76
2022/03/21 10:02:56;;;;;;;19.42;10.40;;;17.00;86.50;;;;;;5006177;28;20026;-75
2022/03/21 10:05:34;;;;;;;;;;;17.10;84.80;;;;;;5003591;28;20025;-75
2022/03/21 10:08:26;;;;;;;24.52;9.68;;;17.10;84.20;;;;;;5016964;28;19909;-75
2022/03/21 10:10:58;;;;;;;20.40;9.98;;;16.90;85.10;;;;;;5017469;28;20105;-75
2022/03/21 10:13:29;;;;;;;24.42;11.07;;;16.80;84.90;;;;;;5000258;28;20026;-75
2022/03/21 10:16:10;;;;;;;17.58;9.80;;;16.70;86.60;;;;;;5016780;28;20025;-76
2022/03/21 10:18:36;;;;;;;17.67;10.07;;;16.80;83.50;;;;;;5000252;28;20030;-75
2022/03/21 10:21:10;;;;;;;19.38;8.88;;;16.80;83.90;;;;;;5017881;28;20026;-75
2022/03/21 10:23:36;;;;;;;21.50;8.80;;;16.60;82.60;;;;;;4996511;28;20057;-75
2022/03/21 10:26:26;;;;;;;14.53;7.53;;;16.40;84.00;;;;;;4998180;28;20396;-76
2022/03/21 10:28:54;;;;;;;17.83;9.27;;;16.70;80.40;;;;;;4997885;28;20349;-75
2022/03/21 10:31:38;;;;;;;14.88;8.30;;;16.60;84.00;;;;;;4998113;28;20105;-76
2022/03/21 10:34:12;;;;;;;18.75;9.60;;;16.70;82.40;;;;;;5013077;28;20026;-75
2022/03/21 10:37:03;;;;;;;24.30;10.57;;;16.40;83.30;;;;;;5013124;28;20113;-75
2022/03/21 10:39:30;;;;;;;25.55;10.82;;;16.50;84.90;;;;;;4996468;28;20030;-76
2022/03/21 10:41:59;;;;;;;23.35;9.65;;;16.40;84.70;;;;;;4998067;28;20029;-75
2022/03/21 10:44:26;;;;;;;11.82;7.85;;;16.30;84.60;;;;;;4997715;28;20026;-76
2022/03/21 10:46:58;;;;;;;13.63;8.00;;;16.60;76.60;;;;;;5001313;28;20317;-75
2022/03/21 10:49:33;;;;;;;15.00;8.90;;;16.60;75.70;;;;;;5016156;28;20018;-76
2022/03/21 10:52:00;;;;;;;16.30;8.27;;;16.50;72.60;;;;;;5017417;28;20057;-75
2022/03/21 10:54:35;;;;;;;16.75;8.57;;;16.40;76.60;;;;;;5017246;28;20053;-76
2022/03/21 10:57:02;;;;;;;12.75;8.50;;;16.60;77.00;;;;;;5017307;28;20034;-76
2022/03/21 10:59:28;;;;;;;17.05;9.32;;;16.50;78.50;;;;;;5015853;28;20026;-76
2022/03/21 11:02:11;;;;;;;18.40;8.97;;;16.20;79.80;;;;;;5013640;28;20044;-76
2022/03/21 11:04:37;;;;;;;17.90;9.35;;;16.20;79.40;;;;;;5011429;28;20340;-75
2022/03/21 11:07:04;;;;;;;13.18;7.88;;;16.40;78.10;;;;;;5013494;28;20132;-76
2022/03/21 11:09:32;;;;;;;23.00;10.07;;;16.50;80.00;;;;;;5011579;28;20048;-76
2022/03/21 11:12:00;;;;;;;15.48;8.82;;;16.60;80.00;;;;;;5013295;28;20042;-82
2022/03/21 11:14:26;;;;;;;20.17;9.35;;;16.70;80.30;;;;;;5011855;28;20030;-76
2022/03/21 11:16:53;;;;;;;15.23;8.50;;;16.80;76.40;;;;;;5013231;28;20018;-75
2022/03/21 11:19:21;;;;;;;17.70;9.65;;;16.90;76.10;;;;;;5011793;28;20136;-76
2022/03/21 11:21:49;;;;;;;17.83;9.15;;;16.80;78.00;;;;;;5013141;28;20038;-76
2022/03/21 11:24:15;;;;;;;18.08;9.25;;;17.10;78.90;;;;;;5024804;28;20049;-76
2022/03/21 11:26:46;;;;;;;17.02;8.98;;;16.80;77.50;;;;;;5032709;28;20444;-76
2022/03/21 11:29:29;;;;;;;17.02;8.85;;;16.80;78.40;;;;;;5032618;28;20114;-76
2022/03/21 11:32:06;;;;;;;20.30;9.02;;;17.00;78.00;;;;;;5032545;28;20082;-76
2022/03/21 11:34:57;;;;;;;17.45;8.73;;;16.80;73.80;;;;;;5014615;28;20029;-76
2022/03/21 11:37:30;;;;;;;26.05;9.80;;;17.00;77.50;;;;;;5014761;28;20321;-76
2022/03/21 11:40:26;;;;;;;18.02;9.15;;;17.20;75.90;;;;;;5032412;28;20412;-80
2022/03/21 11:43:18;;;;;;;21.40;10.13;;;17.20;78.50;;;;;;5014898;28;20029;-76
2022/03/21 11:45:53;;;;;;;21.38;11.07;;;17.30;80.10;;;;;;5014377;28;20489;-76
2022/03/21 11:48:18;;;;;;;20.83;11.00;;;17.50;79.50;;;;;;5032260;28;20075;-76
2022/03/21 11:50:56;;;;;;;18.97;10.43;;;17.80;75.60;;;;;;5032616;28;20108;-76
2022/03/21 11:53:31;;;;;;;19.83;10.75;;;17.90;78.80;;;;;;5032438;28;20112;-77
2022/03/21 11:55:57;;;;;;;17.33;9.90;;;17.80;76.40;;;;;;5032307;28;20083;-76
2022/03/21 11:58:23;;;;;;;18.35;10.25;;;17.60;76.00;;;;;;5014427;28;20052;-76
2022/03/21 12:01:13;;;;;;;19.57;10.80;;;17.50;78.20;;;;;;5032316;28;20075;-77
2022/03/21 12:03:41;;;;;;;20.40;10.65;;;17.60;79.00;;;;;;5032128;28;20029;-76
2022/03/21 12:06:33;;;;;;;17.02;9.98;;;17.60;76.50;;;;;;5014230;28;20029;-77
2022/03/21 12:09:09;;;;;;;19.83;10.02;;;17.80;75.30;;;;;;5028148;28;20041;-82
2022/03/21 12:11:38;;;;;;;19.88;10.52;;;17.80;74.20;;;;;;5032299;28;20038;-76
2022/03/21 12:14:40;;;;;;;22.85;10.65;;;17.70;77.20;;;;;;5032139;28;20052;-77
2022/03/21 12:17:05;;;;;;;31.17;11.57;;;17.50;77.20;;;;;;5032023;28;20021;-77
2022/03/21 12:19:57;;;;;;;22.37;10.50;;;17.70;78.60;;;;;;5014117;28;20151;-77
2022/03/21 12:22:29;;;;;;;20.30;10.00;;;17.90;77.40;;;;;;5014004;28;20404;-82
2022/03/21 12:24:59;;;;;;;23.52;9.85;;;17.90;78.90;;;;;;5031398;28;20451;-81
2022/03/21 12:27:42;;;;;;;20.05;10.82;;;18.00;77.70;;;;;;5031339;28;20025;-76
2022/03/21 12:30:31;;;;;;;24.55;10.10;;;18.00;76.80;;;;;;5031700;28;20030;-77
2022/03/21 12:32:59;;;;;;;22.95;10.55;;;18.00;78.10;;;;;;5031710;28;20297;-76
2022/03/21 12:35:45;;;;;;;34.22;12.15;;;18.30;79.10;;;;;;5013808;28;20029;-77
2022/03/21 12:38:22;;;;;;;19.15;10.43;;;18.30;80.30;;;;;;5032011;28;20458;-76
2022/03/21 12:40:50;;;;;;;29.35;11.00;;;18.20;78.20;;;;;;5013834;28;20119;-77
2022/03/21 12:43:24;;;;;;;20.38;10.00;;;18.10;79.30;;;;;;5031449;28;20029;-77
2022/03/21 12:45:58;;;;;;;22.50;10.25;;;18.20;76.90;;;;;;5015751;28;20039;-77
2022/03/21 12:48:29;;;;;;;20.45;10.63;;;18.30;80.20;;;;;;5034653;28;20021;-78
2022/03/21 12:50:55;;;;;;;22.15;11.57;;;18.10;78.60;;;;;;5017289;28;20321;-77
2022/03/21 12:53:22;;;;;;;26.97;11.53;;;18.20;80.50;;;;;;5034531;28;20018;-77
2022/03/21 12:56:08;;;;;;;20.73;10.90;;;18.20;77.40;;;;;;5035320;28;20619;-77
2022/03/21 12:58:35;;;;;;;21.98;11.35;;;18.30;74.60;;;;;;5017413;28;20032;-77
2022/03/21 13:01:03;;;;;;;25.02;11.93;;;18.10;77.60;;;;;;5017448;28;20040;-77
2022/03/21 13:03:30;;;;;;;26.63;11.07;;;18.30;79.10;;;;;;5017266;28;20034;-77